sensor_id;sensor_type;location;lat;lon;timestamp;pressure;altitude;pressure_sealevel;temperature;humidity
5356;BME280;70449;52.486;13.386;2023-07-29T00:00:22;100180.44;;;23.24;100.00
5356;BME280;70449;52.486;13.386;2023-07-29T00:02:50;100182.63;;;22.90;100.00
5356;BME280;70449;52.486;13.386;2023-07-29T00:05:17;100184.06;;;22.58;100.00
5356;BME280;70449;52.486;13.386;2023-07-29T00:07:44;100188.88;;;22.61;100.00
5356;BME280;70449;52.486;13.386;2023-07-29T00:10:12;100190.56;;;22.77;100.00
5356;BME280;70449;52.486;13.386;2023-07-29T00:12:41;100191.03;;;22.31;100.00
5356;BME280;70449;52.486;13.386;2023-07-29T00:15:09;100183.88;;;22.37;100.00
5356;BME280;70449;52.486;13.386;2023-07-29T00:17:36;100186.47;;;22.63;100.00
5356;BME280;70449;52.486;13.386;2023-07-29T00:20:06;100179.06;;;22.34;100.00
5356;BME280;70449;52.486;13.386;2023-07-29T00:22:33;100181.88;;;22.34;100.00
5356;BME280;70449;52.486;13.386;2023-07-29T00:25:02;100174.94;;;22.17;100.00
5356;BME280;70449;52.486;13.386;2023-07-29T00:27:29;100174.13;;;22.16;100.00
5356;BME280;70449;52.486;13.386;2023-07-29T00:29:58;100177.66;;;22.58;100.00
5356;BME280;70449;52.486;13.386;2023-07-29T00:32:29;100172.03;;;22.54;100.00
5356;BME280;70449;52.486;13.386;2023-07-29T00:34:56;100167.78;;;22.19;100.00
5356;BME280;70449;52.486;13.386;2023-07-29T00:37:23;100179.38;;;21.81;100.00
5356;BME280;70449;52.486;13.386;2023-07-29T00:39:51;100172.63;;;21.44;100.00
5356;BME280;70449;52.486;13.386;2023-07-29T00:42:18;100179.78;;;21.42;100.00
5356;BME280;70449;52.486;13.386;2023-07-29T00:44:45;100184.59;;;21.45;100.00
5356;BME280;70449;52.486;13.386;2023-07-29T00:47:15;100181.91;;;21.25;100.00
5356;BME280;70449;52.486;13.386;2023-07-29T00:49:43;100178.47;;;21.69;100.00
5356;BME280;70449;52.486;13.386;2023-07-29T00:52:11;100179.88;;;21.52;100.00
5356;BME280;70449;52.486;13.386;2023-07-29T00:54:39;100173.75;;;21.73;100.00
5356;BME280;70449;52.486;13.386;2023-07-29T00:57:07;100178.44;;;21.66;100.00
5356;BME280;70449;52.486;13.386;2023-07-29T00:59:35;100174.09;;;21.68;100.00
5356;BME280;70449;52.486;13.386;2023-07-29T01:02:03;100165.44;;;22.22;100.00
5356;BME280;70449;52.486;13.386;2023-07-29T01:04:31;100157.63;;;22.45;100.00
5356;BME280;70449;52.486;13.386;2023-07-29T01:07:06;100157.59;;;22.38;100.00
5356;BME280;70449;52.486;13.386;2023-07-29T01:09:41;100160.63;;;22.18;100.00
5356;BME280;70449;52.486;13.386;2023-07-29T01:12:18;100150.41;;;22.40;100.00
5356;BME280;70449;52.486;13.386;2023-07-29T01:14:58;100150.00;;;22.35;100.00
5356;BME280;70449;52.486;13.386;2023-07-29T01:17:32;100147.47;;;22.23;100.00
5356;BME280;70449;52.486;13.386;2023-07-29T01:20:07;100144.84;;;22.44;100.00
5356;BME280;70449;52.486;13.386;2023-07-29T01:22:36;100143.19;;;22.36;100.00
5356;BME280;70449;52.486;13.386;2023-07-29T01:25:07;100136.03;;;22.35;100.00
5356;BME280;70449;52.486;13.386;2023-07-29T01:27:34;100124.00;;;22.31;100.00
5356;BME280;70449;52.486;13.386;2023-07-29T01:30:02;100123.56;;;22.22;100.00
5356;BME280;70449;52.486;13.386;2023-07-29T01:32:37;100124.84;;;22.35;100.00
5356;BME280;70449;52.486;13.386;2023-07-29T01:35:23;100124.00;;;22.31;100.00
5356;BME280;70449;52.486;13.386;2023-07-29T01:37:55;100125.44;;;22.66;100.00
5356;BME280;70449;52.486;13.386;2023-07-29T01:40:27;100131.34;;;22.53;100.00
5356;BME280;70449;52.486;13.386;2023-07-29T01:42:55;100135.28;;;22.45;100.00
5356;BME280;70449;52.486;13.386;2023-07-29T01:45:24;100143.91;;;22.26;100.00
5356;BME280;70449;52.486;13.386;2023-07-29T01:47:52;100147.13;;;22.28;100.00
5356;BME280;70449;52.486;13.386;2023-07-29T01:50:19;100147.16;;;22.31;100.00
5356;BME280;70449;52.486;13.386;2023-07-29T01:52:46;100150.13;;;22.08;100.00
5356;BME280;70449;52.486;13.386;2023-07-29T01:55:14;100152.34;;;22.33;100.00
5356;BME280;70449;52.486;13.386;2023-07-29T01:57:42;100141.41;;;22.13;100.00
5356;BME280;70449;52.486;13.386;2023-07-29T02:00:11;100149.50;;;22.26;100.00
5356;BME280;70449;52.486;13.386;2023-07-29T02:02:38;100140.63;;;22.16;100.00
5356;BME280;70449;52.486;13.386;2023-07-29T02:05:06;100149.44;;;22.18;100.00
5356;BME280;70449;52.486;13.386;2023-07-29T02:07:34;100155.06;;;22.22;100.00
5356;BME280;70449;52.486;13.386;2023-07-29T02:10:01;100154.09;;;22.07;100.00
5356;BME280;70449;52.486;13.386;2023-07-29T02:12:28;100145.69;;;22.48;100.00
5356;BME280;70449;52.486;13.386;2023-07-29T02:14:57;100146.31;;;22.24;100.00
5356;BME280;70449;52.486;13.386;2023-07-29T02:17:24;100144.75;;;22.30;100.00
5356;BME280;70449;52.486;13.386;2023-07-29T02:19:53;100143.91;;;22.26;100.00
5356;BME280;70449;52.486;13.386;2023-07-29T02:22:20;100136.03;;;22.35;100.00
5356;BME280;70449;52.486;13.386;2023-07-29T02:24:47;100141.25;;;21.95;100.00
5356;BME280;70449;52.486;13.386;2023-07-29T02:27:14;100147.78;;;22.14;100.00
5356;BME280;70449;52.486;13.386;2023-07-29T02:29:42;100144.84;;;21.96;100.00
5356;BME280;70449;52.486;13.386;2023-07-29T02:32:10;100139.88;;;22.19;100.00
5356;BME280;70449;52.486;13.386;2023-07-29T02:34:40;100138.16;;;22.08;100.00
5356;BME280;70449;52.486;13.386;2023-07-29T02:37:08;100145.91;;;21.81;100.00
5356;BME280;70449;52.486;13.386;2023-07-29T02:39:36;100139.19;;;21.48;100.00
5356;BME280;70449;52.486;13.386;2023-07-29T02:42:04;100131.47;;;21.71;100.00
5356;BME280;70449;52.486;13.386;2023-07-29T02:44:31;100136.41;;;21.48;100.00
5356;BME280;70449;52.486;13.386;2023-07-29T02:46:58;100138.22;;;21.33;100.00
5356;BME280;70449;52.486;13.386;2023-07-29T02:49:27;100131.59;;;21.45;100.00
5356;BME280;70449;52.486;13.386;2023-07-29T02:51:54;100131.53;;;21.79;100.00
5356;BME280;70449;52.486;13.386;2023-07-29T02:54:21;100135.22;;;21.49;100.00
5356;BME280;70449;52.486;13.386;2023-07-29T02:56:50;100129.81;;;21.67;100.00
5356;BME280;70449;52.486;13.386;2023-07-29T02:59:18;100131.09;;;21.36;100.00
5356;BME280;70449;52.486;13.386;2023-07-29T03:01:45;100134.41;;;21.45;100.00
5356;BME280;70449;52.486;13.386;2023-07-29T03:04:12;100136.06;;;21.53;100.00
5356;BME280;70449;52.486;13.386;2023-07-29T03:06:41;100139.28;;;21.55;100.00
5356;BME280;70449;52.486;13.386;2023-07-29T03:09:09;100139.38;;;21.66;100.00
5356;BME280;70449;52.486;13.386;2023-07-29T03:11:36;100138.78;;;21.87;100.00
5356;BME280;70449;52.486;13.386;2023-07-29T03:14:04;100134.91;;;21.58;100.00
5356;BME280;70449;52.486;13.386;2023-07-29T03:16:31;100142.47;;;21.57;100.00
5356;BME280;70449;52.486;13.386;2023-07-29T03:18:58;100133.06;;;21.72;100.00
5356;BME280;70449;52.486;13.386;2023-07-29T03:21:26;100145.06;;;21.77;100.00
5356;BME280;70449;52.486;13.386;2023-07-29T03:23:54;100142.75;;;21.82;100.00
5356;BME280;70449;52.486;13.386;2023-07-29T03:26:21;100130.72;;;21.78;100.00
5356;BME280;70449;52.486;13.386;2023-07-29T03:28:48;100133.03;;;21.69;100.00
5356;BME280;70449;52.486;13.386;2023-07-29T03:31:16;100134.72;;;21.77;100.00
5356;BME280;70449;52.486;13.386;2023-07-29T03:33:43;100132.44;;;21.90;100.00
5356;BME280;70449;52.486;13.386;2023-07-29T03:36:10;100129.47;;;22.16;100.00
5356;BME280;70449;52.486;13.386;2023-07-29T03:38:37;100131.47;;;21.71;100.00
5356;BME280;70449;52.486;13.386;2023-07-29T03:41:07;100131.38;;;21.64;100.00
5356;BME280;70449;52.486;13.386;2023-07-29T03:43:34;100121.75;;;21.55;100.00
5356;BME280;70449;52.486;13.386;2023-07-29T03:46:02;100125.31;;;21.55;100.00
5356;BME280;70449;52.486;13.386;2023-07-29T03:48:29;100127.34;;;21.58;100.00
5356;BME280;70449;52.486;13.386;2023-07-29T03:50:57;100125.59;;;21.43;100.00
5356;BME280;70449;52.486;13.386;2023-07-29T03:53:24;100116.22;;;21.24;100.00
5356;BME280;70449;52.486;13.386;2023-07-29T03:55:51;100119.00;;;21.24;100.00
5356;BME280;70449;52.486;13.386;2023-07-29T03:58:20;100120.13;;;21.50;100.00
5356;BME280;70449;52.486;13.386;2023-07-29T04:00:47;100123.81;;;21.27;100.00
5356;BME280;70449;52.486;13.386;2023-07-29T04:03:14;100120.44;;;21.11;100.00
5356;BME280;70449;52.486;13.386;2023-07-29T04:05:41;100118.56;;;21.22;100.00
5356;BME280;70449;52.486;13.386;2023-07-29T04:08:10;100114.44;;;21.43;100.00
5356;BME280;70449;52.486;13.386;2023-07-29T04:10:37;100114.78;;;21.38;100.00
5356;BME280;70449;52.486;13.386;2023-07-29T04:13:04;100117.75;;;21.18;100.00
5356;BME280;70449;52.486;13.386;2023-07-29T04:15:33;100113.69;;;21.46;100.00
5356;BME280;70449;52.486;13.386;2023-07-29T04:18:00;100110.56;;;21.51;100.00
5356;BME280;70449;52.486;13.386;2023-07-29T04:20:29;100109.81;;;21.58;100.00
5356;BME280;70449;52.486;13.386;2023-07-29T04:22:56;100111.53;;;21.69;100.00
5356;BME280;70449;52.486;13.386;2023-07-29T04:25:23;100105.50;;;21.67;100.00
5356;BME280;70449;52.486;13.386;2023-07-29T04:27:50;100109.03;;;21.57;100.00
5356;BME280;70449;52.486;13.386;2023-07-29T04:30:17;100101.75;;;21.49;100.00
5356;BME280;70449;52.486;13.386;2023-07-29T04:32:47;100106.69;;;21.63;100.00
5356;BME280;70449;52.486;13.386;2023-07-29T04:35:16;100112.56;;;21.95;100.00
5356;BME280;70449;52.486;13.386;2023-07-29T04:37:43;100109.41;;;22.00;100.00
5356;BME280;70449;52.486;13.386;2023-07-29T04:40:10;100121.34;;;21.97;100.00
5356;BME280;70449;52.486;13.386;2023-07-29T04:42:38;100120.44;;;21.82;100.00
5356;BME280;70449;52.486;13.386;2023-07-29T04:45:06;100111.69;;;21.87;100.00
5356;BME280;70449;52.486;13.386;2023-07-29T04:47:33;100124.31;;;21.70;100.00
5356;BME280;70449;52.486;13.386;2023-07-29T04:50:02;100125.06;;;22.15;100.00
5356;BME280;70449;52.486;13.386;2023-07-29T04:52:29;100117.31;;;21.91;100.00
5356;BME280;70449;52.486;13.386;2023-07-29T04:54:56;100112.88;;;22.34;100.00
5356;BME280;70449;52.486;13.386;2023-07-29T04:57:24;100110.56;;;22.47;100.00
5356;BME280;70449;52.486;13.386;2023-07-29T04:59:52;100115.47;;;22.64;100.00
5356;BME280;70449;52.486;13.386;2023-07-29T05:02:19;100113.00;;;22.56;100.00
5356;BME280;70449;52.486;13.386;2023-07-29T05:04:46;100110.69;;;22.69;100.00
5356;BME280;70449;52.486;13.386;2023-07-29T05:07:15;100113.22;;;22.95;100.00
5356;BME280;70449;52.486;13.386;2023-07-29T05:09:42;100117.53;;;22.19;100.00
5356;BME280;70449;52.486;13.386;2023-07-29T05:12:09;100114.53;;;22.46;100.00
5356;BME280;70449;52.486;13.386;2023-07-29T05:14:36;100113.13;;;22.77;100.00
5356;BME280;70449;52.486;13.386;2023-07-29T05:17:04;100107.59;;;22.88;100.00
5356;BME280;70449;52.486;13.386;2023-07-29T05:19:32;100106.56;;;22.48;100.00
5356;BME280;70449;52.486;13.386;2023-07-29T05:21:59;100102.56;;;22.42;100.00
5356;BME280;70449;52.486;13.386;2023-07-29T05:24:27;100094.75;;;22.73;100.00
5356;BME280;70449;52.486;13.386;2023-07-29T05:26:54;100098.19;;;22.48;100.00
5356;BME280;70449;52.486;13.386;2023-07-29T05:29:22;100098.28;;;22.62;100.00
5356;BME280;70449;52.486;13.386;2023-07-29T05:31:49;100101.53;;;22.16;100.00
5356;BME280;70449;52.486;13.386;2023-07-29T05:34:16;100104.13;;;22.39;100.00
5356;BME280;70449;52.486;13.386;2023-07-29T05:36:43;100111.28;;;22.33;100.00
5356;BME280;70449;52.486;13.386;2023-07-29T05:39:10;100117.63;;;22.30;100.00
5356;BME280;70449;52.486;13.386;2023-07-29T05:41:40;100119.00;;;22.03;100.00
5356;BME280;70449;52.486;13.386;2023-07-29T05:44:07;100116.00;;;22.26;100.00
5356;BME280;70449;52.486;13.386;2023-07-29T05:46:34;100116.59;;;22.56;100.00
5356;BME280;70449;52.486;13.386;2023-07-29T05:49:01;100112.34;;;22.84;100.00
5356;BME280;70449;52.486;13.386;2023-07-29T05:51:28;100117.34;;;23.30;100.00
5356;BME280;70449;52.486;13.386;2023-07-29T05:53:56;100120.88;;;22.36;100.00
5356;BME280;70449;52.486;13.386;2023-07-29T05:56:23;100110.59;;;22.54;100.00
5356;BME280;70449;52.486;13.386;2023-07-29T05:58:51;100106.94;;;23.27;100.00
5356;BME280;70449;52.486;13.386;2023-07-29T06:01:19;100099.09;;;23.79;100.00
5356;BME280;70449;52.486;13.386;2023-07-29T06:03:47;100087.44;;;23.66;100.00
5356;BME280;70449;52.486;13.386;2023-07-29T06:06:14;100082.28;;;23.72;100.00
5356;BME280;70449;52.486;13.386;2023-07-29T06:08:41;100083.84;;;23.59;100.00
5356;BME280;70449;52.486;13.386;2023-07-29T06:11:09;100078.66;;;23.68;100.00
5356;BME280;70449;52.486;13.386;2023-07-29T06:13:36;100078.28;;;23.80;100.00
5356;BME280;70449;52.486;13.386;2023-07-29T06:16:06;100069.50;;;23.99;100.00
5356;BME280;70449;52.486;13.386;2023-07-29T06:18:33;100075.00;;;23.28;100.00
5356;BME280;70449;52.486;13.386;2023-07-29T06:21:00;100074.22;;;23.35;100.00
5356;BME280;70449;52.486;13.386;2023-07-29T06:23:27;100068.69;;;23.74;100.00
5356;BME280;70449;52.486;13.386;2023-07-29T06:25:54;100063.09;;;23.92;100.00
5356;BME280;70449;52.486;13.386;2023-07-29T06:28:21;100067.47;;;23.61;100.00
5356;BME280;70449;52.486;13.386;2023-07-29T06:30:49;100070.28;;;23.96;100.00
5356;BME280;70449;52.486;13.386;2023-07-29T06:33:17;100079.88;;;23.95;100.00
5356;BME280;70449;52.486;13.386;2023-07-29T06:35:45;100079.09;;;23.84;100.00
5356;BME280;70449;52.486;13.386;2023-07-29T06:38:12;100080.19;;;23.26;100.00
5356;BME280;70449;52.486;13.386;2023-07-29T06:40:39;100083.44;;;23.53;100.00
5356;BME280;70449;52.486;13.386;2023-07-29T06:43:06;100092.63;;;23.46;100.00
5356;BME280;70449;52.486;13.386;2023-07-29T06:45:33;100084.69;;;23.84;100.00
5356;BME280;70449;52.486;13.386;2023-07-29T06:48:01;100087.09;;;24.11;100.00
5356;BME280;70449;52.486;13.386;2023-07-29T06:50:29;100096.63;;;23.52;100.00
5356;BME280;70449;52.486;13.386;2023-07-29T06:52:56;100093.84;;;24.24;100.00
5356;BME280;70449;52.486;13.386;2023-07-29T06:55:24;100095.03;;;24.44;100.00
5356;BME280;70449;52.486;13.386;2023-07-29T06:57:52;100100.69;;;23.73;100.00
5356;BME280;70449;52.486;13.386;2023-07-29T07:00:19;100106.63;;;23.61;100.00
5356;BME280;70449;52.486;13.386;2023-07-29T07:02:46;100107.09;;;23.88;100.00
5356;BME280;70449;52.486;13.386;2023-07-29T07:05:14;100104.69;;;24.08;100.00
5356;BME280;70449;52.486;13.386;2023-07-29T07:07:42;100100.66;;;24.44;100.00
5356;BME280;70449;52.486;13.386;2023-07-29T07:10:09;100093.38;;;24.69;100.00
5356;BME280;70449;52.486;13.386;2023-07-29T07:12:37;100095.81;;;24.63;100.00
5356;BME280;70449;52.486;13.386;2023-07-29T07:15:05;100099.03;;;24.40;100.00
5356;BME280;70449;52.486;13.386;2023-07-29T07:17:33;100104.66;;;24.18;100.00
5356;BME280;70449;52.486;13.386;2023-07-29T07:20:00;100103.81;;;24.39;100.00
5356;BME280;70449;52.486;13.386;2023-07-29T07:22:27;100103.88;;;23.82;100.00
5356;BME280;70449;52.486;13.386;2023-07-29T07:24:55;100097.44;;;24.53;100.00
5356;BME280;70449;52.486;13.386;2023-07-29T07:27:23;100097.44;;;24.35;100.00
5356;BME280;70449;52.486;13.386;2023-07-29T07:29:51;100103.88;;;24.04;100.00
5356;BME280;70449;52.486;13.386;2023-07-29T07:32:18;100100.69;;;24.09;100.00
5356;BME280;70449;52.486;13.386;2023-07-29T07:34:46;100096.41;;;25.17;100.00
5356;BME280;70449;52.486;13.386;2023-07-29T07:37:13;100095.84;;;24.24;100.00
5356;BME280;70449;52.486;13.386;2023-07-29T07:39:40;100092.63;;;24.39;100.00
5356;BME280;70449;52.486;13.386;2023-07-29T07:42:09;100087.03;;;24.47;100.00
5356;BME280;70449;52.486;13.386;2023-07-29T07:44:36;100089.81;;;24.57;100.00
5356;BME280;70449;52.486;13.386;2023-07-29T07:47:03;100085.47;;;24.46;100.00
5356;BME280;70449;52.486;13.386;2023-07-29T07:49:31;100083.75;;;24.73;100.00
5356;BME280;70449;52.486;13.386;2023-07-29T07:51:59;100078.97;;;24.70;100.00
5356;BME280;70449;52.486;13.386;2023-07-29T07:54:26;100080.59;;;24.57;100.00
5356;BME280;70449;52.486;13.386;2023-07-29T07:56:53;100073.19;;;25.06;100.00
5356;BME280;70449;52.486;13.386;2023-07-29T07:59:22;100059.78;;;25.46;100.00
5356;BME280;70449;52.486;13.386;2023-07-29T08:01:49;100061.44;;;25.32;100.00
5356;BME280;70449;52.486;13.386;2023-07-29T08:04:18;100061.91;;;25.27;100.00
5356;BME280;70449;52.486;13.386;2023-07-29T08:06:45;100065.81;;;25.41;100.00
5356;BME280;70449;52.486;13.386;2023-07-29T08:09:14;100063.75;;;26.04;100.00
5356;BME280;70449;52.486;13.386;2023-07-29T08:11:41;100057.13;;;25.76;100.00
5356;BME280;70449;52.486;13.386;2023-07-29T08:14:09;100065.31;;;25.53;100.00
5356;BME280;70449;52.486;13.386;2023-07-29T08:16:37;100069.53;;;25.83;100.00
5356;BME280;70449;52.486;13.386;2023-07-29T08:19:05;100055.06;;;25.88;100.00
5356;BME280;70449;52.486;13.386;2023-07-29T08:21:33;100054.66;;;26.31;100.00
5356;BME280;70449;52.486;13.386;2023-07-29T08:24:00;100063.56;;;25.73;100.00
5356;BME280;70449;52.486;13.386;2023-07-29T08:26:27;100060.06;;;26.49;100.00
5356;BME280;70449;52.486;13.386;2023-07-29T08:28:54;100054.75;;;26.20;100.00
5356;BME280;70449;52.486;13.386;2023-07-29T08:31:21;100060.22;;;26.34;100.00
5356;BME280;70449;52.486;13.386;2023-07-29T08:33:51;100053.72;;;26.41;100.00
5356;BME280;70449;52.486;13.386;2023-07-29T08:36:18;100044.94;;;26.39;100.00
5356;BME280;70449;52.486;13.386;2023-07-29T08:38:46;100043.56;;;26.85;100.00
5356;BME280;70449;52.486;13.386;2023-07-29T08:41:18;100050.16;;;26.37;100.00
5356;BME280;70449;52.486;13.386;2023-07-29T08:43:52;100041.47;;;26.62;100.00
5356;BME280;70449;52.486;13.386;2023-07-29T08:46:23;100047.06;;;26.28;100.00
5356;BME280;70449;52.486;13.386;2023-07-29T08:48:52;100049.09;;;26.23;100.00
5356;BME280;70449;52.486;13.386;2023-07-29T08:51:20;100042.94;;;25.98;100.00
5356;BME280;70449;52.486;13.386;2023-07-29T08:53:48;100030.63;;;26.91;100.00
5356;BME280;70449;52.486;13.386;2023-07-29T08:56:16;100030.53;;;27.56;100.00
5356;BME280;70449;52.486;13.386;2023-07-29T08:58:43;100035.03;;;27.26;100.00
5356;BME280;70449;52.486;13.386;2023-07-29T09:01:12;100042.06;;;26.80;100.00
5356;BME280;70449;52.486;13.386;2023-07-29T09:03:41;100036.00;;;26.82;100.00
5356;BME280;70449;52.486;13.386;2023-07-29T09:06:10;100034.59;;;26.97;100.00
5356;BME280;70449;52.486;13.386;2023-07-29T09:08:38;100036.25;;;26.95;100.00
5356;BME280;70449;52.486;13.386;2023-07-29T09:11:07;100036.75;;;27.17;100.00
5356;BME280;70449;52.486;13.386;2023-07-29T09:13:34;100027.50;;;27.43;100.00
5356;BME280;70449;52.486;13.386;2023-07-29T09:16:02;100027.28;;;27.03;100.00
5356;BME280;70449;52.486;13.386;2023-07-29T09:18:31;100026.78;;;27.39;100.00
5356;BME280;70449;52.486;13.386;2023-07-29T09:20:59;100022.16;;;27.76;100.00
5356;BME280;70449;52.486;13.386;2023-07-29T09:23:28;100020.00;;;28.07;100.00
5356;BME280;70449;52.486;13.386;2023-07-29T09:26:05;100014.25;;;28.34;100.00
5356;BME280;70449;52.486;13.386;2023-07-29T09:28:34;100022.84;;;28.27;100.00
5356;BME280;70449;52.486;13.386;2023-07-29T09:31:03;100015.06;;;27.68;100.00
5356;BME280;70449;52.486;13.386;2023-07-29T09:33:33;100016.81;;;27.04;100.00
5356;BME280;70449;52.486;13.386;2023-07-29T09:36:08;100003.03;;;27.64;100.00
5356;BME280;70449;52.486;13.386;2023-07-29T09:38:37;100007.81;;;28.14;100.00
5356;BME280;70449;52.486;13.386;2023-07-29T09:41:05;100001.94;;;27.34;100.00
5356;BME280;70449;52.486;13.386;2023-07-29T09:43:33;100003.94;;;27.84;100.00
5356;BME280;70449;52.486;13.386;2023-07-29T09:46:03;99996.47;;;28.37;100.00
5356;BME280;70449;52.486;13.386;2023-07-29T09:48:33;99998.41;;;28.00;100.00
5356;BME280;70449;52.486;13.386;2023-07-29T09:51:10;99997.22;;;27.74;100.00
5356;BME280;70449;52.486;13.386;2023-07-29T09:53:42;99984.00;;;27.71;100.00
5356;BME280;70449;52.486;13.386;2023-07-29T09:56:10;99990.19;;;27.63;100.00
5356;BME280;70449;52.486;13.386;2023-07-29T09:58:38;99981.78;;;28.50;100.00
5356;BME280;70449;52.486;13.386;2023-07-29T10:01:06;99986.44;;;28.36;100.00
5356;BME280;70449;52.486;13.386;2023-07-29T10:03:35;99981.47;;;28.64;100.00
5356;BME280;70449;52.486;13.386;2023-07-29T10:06:03;99985.94;;;28.21;100.00
5356;BME280;70449;52.486;13.386;2023-07-29T10:08:31;99978.22;;;28.45;100.00
5356;BME280;70449;52.486;13.386;2023-07-29T10:11:03;99971.06;;;28.61;100.00
5356;BME280;70449;52.486;13.386;2023-07-29T10:13:32;99970.31;;;27.97;100.00
5356;BME280;70449;52.486;13.386;2023-07-29T10:16:00;99969.63;;;28.53;100.00
5356;BME280;70449;52.486;13.386;2023-07-29T10:18:30;99973.50;;;28.79;100.00
5356;BME280;70449;52.486;13.386;2023-07-29T10:20:59;99969.81;;;28.22;100.00
5356;BME280;70449;52.486;13.386;2023-07-29T10:23:31;99962.31;;;28.35;100.00
5356;BME280;70449;52.486;13.386;2023-07-29T10:26:06;99958.69;;;28.55;100.00
5356;BME280;70449;52.486;13.386;2023-07-29T10:28:40;99946.34;;;28.29;100.00
5356;BME280;70449;52.486;13.386;2023-07-29T10:31:07;99945.00;;;27.93;100.00
5356;BME280;70449;52.486;13.386;2023-07-29T10:33:36;99942.44;;;28.62;100.00
5356;BME280;70449;52.486;13.386;2023-07-29T10:36:05;99951.69;;;28.23;100.00
5356;BME280;70449;52.486;13.386;2023-07-29T10:38:33;99950.22;;;28.75;100.00
5356;BME280;70449;52.486;13.386;2023-07-29T10:41:00;99945.47;;;28.32;100.00
5356;BME280;70449;52.486;13.386;2023-07-29T10:43:34;99936.72;;;27.39;100.00
5356;BME280;70449;52.486;13.386;2023-07-29T10:46:16;99926.31;;;27.83;100.00
5356;BME280;70449;52.486;13.386;2023-07-29T10:48:51;99918.22;;;27.85;100.00
5356;BME280;70449;52.486;13.386;2023-07-29T10:51:29;99897.59;;;28.12;100.00
5356;BME280;70449;52.486;13.386;2023-07-29T10:54:01;99905.47;;;27.77;100.00
5356;BME280;70449;52.486;13.386;2023-07-29T10:56:31;99912.59;;;27.85;100.00
5356;BME280;70449;52.486;13.386;2023-07-29T10:59:32;99917.16;;;27.79;100.00
5356;BME280;70449;52.486;13.386;2023-07-29T11:02:01;99925.53;;;27.83;100.00
5356;BME280;70449;52.486;13.386;2023-07-29T11:04:31;99935.88;;;27.42;100.00
5356;BME280;70449;52.486;13.386;2023-07-29T11:07:24;99939.84;;;26.94;100.00
5356;BME280;70449;52.486;13.386;2023-07-29T11:09:58;99932.66;;;27.17;100.00
5356;BME280;70449;52.486;13.386;2023-07-29T11:12:49;99943.97;;;26.86;100.00
5356;BME280;70449;52.486;13.386;2023-07-29T11:15:23;99999.47;;;25.16;100.00
5356;BME280;70449;52.486;13.386;2023-07-29T11:17:53;100009.97;;;22.40;100.00
5356;BME280;70449;52.486;13.386;2023-07-29T11:20:23;100005.75;;;22.05;100.00
5356;BME280;70449;52.486;13.386;2023-07-29T11:22:52;100006.88;;;22.52;100.00
5356;BME280;70449;52.486;13.386;2023-07-29T11:25:21;99996.50;;;22.56;100.00
5356;BME280;70449;52.486;13.386;2023-07-29T11:27:49;99994.56;;;22.68;100.00
5356;BME280;70449;52.486;13.386;2023-07-29T11:30:19;99991.88;;;22.96;100.00
5356;BME280;70449;52.486;13.386;2023-07-29T11:32:47;99983.81;;;22.77;100.00
5356;BME280;70449;52.486;13.386;2023-07-29T11:35:16;99985.50;;;23.06;100.00
5356;BME280;70449;52.486;13.386;2023-07-29T11:37:46;99982.69;;;23.06;100.00
5356;BME280;70449;52.486;13.386;2023-07-29T11:40:15;99982.31;;;23.33;100.00
5356;BME280;70449;52.486;13.386;2023-07-29T11:42:43;99977.53;;;23.51;100.00
5356;BME280;70449;52.486;13.386;2023-07-29T11:45:12;99965.50;;;23.97;100.00
5356;BME280;70449;52.486;13.386;2023-07-29T11:47:41;99967.13;;;23.66;100.00
5356;BME280;70449;52.486;13.386;2023-07-29T11:50:10;99969.16;;;23.80;100.00
5356;BME280;70449;52.486;13.386;2023-07-29T11:52:41;99965.16;;;23.85;100.00
5356;BME280;70449;52.486;13.386;2023-07-29T11:55:09;99964.75;;;23.65;100.00
5356;BME280;70449;52.486;13.386;2023-07-29T11:57:38;99967.13;;;23.91;100.00
5356;BME280;70449;52.486;13.386;2023-07-29T12:00:07;99950.22;;;24.31;100.00
5356;BME280;70449;52.486;13.386;2023-07-29T12:02:38;99952.31;;;24.02;100.00
5356;BME280;70449;52.486;13.386;2023-07-29T12:05:08;99955.47;;;24.14;100.00
5356;BME280;70449;52.486;13.386;2023-07-29T12:07:38;99954.72;;;23.99;100.00
5356;BME280;70449;52.486;13.386;2023-07-29T12:10:06;99953.50;;;24.11;100.00
5356;BME280;70449;52.486;13.386;2023-07-29T12:12:37;99948.19;;;24.38;100.00
5356;BME280;70449;52.486;13.386;2023-07-29T12:15:07;99957.03;;;24.26;100.00
5356;BME280;70449;52.486;13.386;2023-07-29T12:17:40;99965.50;;;24.05;100.00
5356;BME280;70449;52.486;13.386;2023-07-29T12:20:11;99973.56;;;23.81;100.00
5356;BME280;70449;52.486;13.386;2023-07-29T12:22:38;99963.84;;;24.25;100.00
5356;BME280;70449;52.486;13.386;2023-07-29T12:25:06;99963.84;;;24.18;100.00
5356;BME280;70449;52.486;13.386;2023-07-29T12:27:34;99955.00;;;24.37;100.00
5356;BME280;70449;52.486;13.386;2023-07-29T12:30:02;99974.28;;;24.07;100.00
5356;BME280;70449;52.486;13.386;2023-07-29T12:32:30;99967.00;;;24.34;100.00
5356;BME280;70449;52.486;13.386;2023-07-29T12:34:57;99978.66;;;24.18;100.00
5356;BME280;70449;52.486;13.386;2023-07-29T12:37:32;99971.13;;;23.97;100.00
5356;BME280;70449;52.486;13.386;2023-07-29T12:40:01;99968.78;;;23.78;100.00
5356;BME280;70449;52.486;13.386;2023-07-29T12:42:29;99971.06;;;24.19;100.00
5356;BME280;70449;52.486;13.386;2023-07-29T12:44:57;99951.38;;;24.44;100.00
5356;BME280;70449;52.486;13.386;2023-07-29T12:47:25;99951.66;;;24.71;100.00
5356;BME280;70449;52.486;13.386;2023-07-29T12:49:52;99945.59;;;24.83;100.00